Aviation Digital Data Service (ADDS)

Output produced by METARs form (0323 UTC 05 June 2020)
found at http://www.aviationweather.gov/metar/data/
 
METAR text: RJSH 050103Z 27015G26KT 230V290 9999 FEW035 26/15 Q1004 RMK 2CU035 A2965
Conditions at: RJSH (HACHINOHE (JMSDF, JP) observed 0103 UTC 05 June 2020
Temperature: 26.0°C (79°F)
Dewpoint: 15.0°C (59°F) [RH = 51%]
Pressure (altimeter): 29.65 inches Hg (1004.0 mb)
Winds: from the W (270 degrees) at 17 MPH (15 knots; 7.7 m/s)
gusting to 30 MPH (26 knots; 13.4 m/s)
Visibility: 6 or more miles (10+ km)
Ceiling: at least 12,000 feet AGL
Clouds: few clouds at 3500 feet AGL
Weather: no significant weather observed at this time

METAR text: RJSH 040934Z 33004KT 290V360 9999 SCT005 17/16 Q1002 RMK 4ST005 A2961
Conditions at: RJSH (HACHINOHE (JMSDF, JP) observed 0934 UTC 04 June 2020
Temperature: 17.0°C (63°F)
Dewpoint: 16.0°C (61°F) [RH = 94%]
Pressure (altimeter): 29.59 inches Hg (1002.0 mb)
Winds: from the NNW (330 degrees) at 5 MPH (4 knots; 2.1 m/s)
Visibility: 6 or more miles (10+ km)
Ceiling: at least 12,000 feet AGL
Clouds: scattered clouds at 500 feet AGL
Weather: no significant weather observed at this time

METAR text: RJSH 040655Z 36010KT 320V020 9999 PRFG FEW002 BKN005 18/16 Q1002 RMK 1ST002 6ST005 A2960 3000 N-E
Conditions at: RJSH (HACHINOHE (JMSDF, JP) observed 0655 UTC 04 June 2020
Temperature: 18.0°C (64°F)
Dewpoint: 16.0°C (61°F) [RH = 88%]
Pressure (altimeter): 29.59 inches Hg (1002.0 mb)
Winds: from the N (360 degrees) at 12 MPH (10 knots; 5.1 m/s)
Visibility: 6 or more miles (10+ km)
Ceiling: 500 feet AGL
Clouds: few clouds at 200 feet AGL
broken clouds at 500 feet AGL
Weather: PRFG  (partial fog)

METAR text: RJSH 040645Z 36009KT 320V030 9999 PRFG FEW003 BKN006 19/16 Q1002 RMK 1ST003 5ST006 A2960 3000 N-E
Conditions at: RJSH (HACHINOHE (JMSDF, JP) observed 0645 UTC 04 June 2020
Temperature: 19.0°C (66°F)
Dewpoint: 16.0°C (61°F) [RH = 83%]
Pressure (altimeter): 29.59 inches Hg (1002.0 mb)
Winds: from the N (360 degrees) at 10 MPH (9 knots; 4.6 m/s)
Visibility: 6 or more miles (10+ km)
Ceiling: 600 feet AGL
Clouds: few clouds at 300 feet AGL
broken clouds at 600 feet AGL
Weather: PRFG  (partial fog)